Time;durP1;ratioP1;P1;durP2;ratioP2;P2;SDS_P1;SDS_P2;PMS_P1;PMS_P2;Temp;Humidity;BMP_temperature;BMP_pressure;BME280_temperature;BME280_humidity;BME280_pressure;Samples;Min_cycle;Max_cycle;Signal;HPM_P1;HPM_P2
2022/05/27 00:02:20;;;;;;;;;;;13.50;98.50;;;;;;5017133;28;19909;-64
2022/05/27 00:04:47;;;;;;;;;;;13.50;97.80;;;;;;5007312;28;19905;-64
2022/05/27 00:07:14;;;;;;;;;;;13.60;97.00;;;;;;5020127;28;19921;-63
2022/05/27 00:09:40;;;;;;;;;;;13.70;97.40;;;;;;5017125;28;19929;-63
2022/05/27 00:12:07;;;;;;;;;;;13.70;97.00;;;;;;5016059;28;19920;-61
2022/05/27 00:14:33;;;;;;;;;;;13.90;97.50;;;;;;5008671;28;20565;-63
2022/05/27 00:17:00;;;;;;;;;;;14.10;97.60;;;;;;5009606;28;19913;-64
2022/05/27 00:19:27;;;;;;;;;;;14.20;96.70;;;;;;5012637;28;19940;-63
2022/05/27 00:21:54;;;;;;;;;;;14.20;95.60;;;;;;5014389;28;19910;-64
2022/05/27 00:24:21;;;;;;;;;;;14.30;95.80;;;;;;5009518;28;19959;-61
2022/05/27 00:26:48;;;;;;;;;;;14.40;95.60;;;;;;5025292;28;20027;-64
2022/05/27 00:29:14;;;;;;;;;;;14.60;95.90;;;;;;5021202;28;20281;-62
2022/05/27 00:31:41;;;;;;;;;;;14.70;95.50;;;;;;5015591;28;20238;-62
2022/05/27 00:34:09;;;;;;;;;;;14.90;95.80;;;;;;5016355;28;19996;-63
2022/05/27 00:36:37;;;;;;;;;;;15.00;95.30;;;;;;5018349;28;20379;-68
2022/05/27 00:39:04;;;;;;;;;;;15.10;95.50;;;;;;5026562;28;19917;-65
2022/05/27 00:41:31;;;;;;;;;;;15.20;94.70;;;;;;5023067;28;19915;-65
2022/05/27 00:43:57;;;;;;;;;;;15.30;94.20;;;;;;5018592;28;19909;-64
2022/05/27 00:46:26;;;;;;;;;;;15.40;94.10;;;;;;5025981;28;20360;-65
2022/05/27 00:48:54;;;;;;;;;;;15.60;94.60;;;;;;5024116;28;19998;-65
2022/05/27 00:51:23;;;;;;;;;;;15.80;94.10;;;;;;5018023;28;19910;-65
2022/05/27 00:53:54;;;;;;;;;;;15.80;93.70;;;;;;5015112;28;20035;-65
2022/05/27 00:56:23;;;;;;;;;;;15.90;92.80;;;;;;5022260;28;19956;-64
2022/05/27 00:58:52;;;;;;;;;;;15.90;92.40;;;;;;5021212;28;19917;-64
2022/05/27 01:01:19;;;;;;;;;;;16.00;91.90;;;;;;5022700;28;20570;-65
2022/05/27 01:03:46;;;;;;;;;;;16.00;92.20;;;;;;5018040;28;20354;-65
2022/05/27 01:06:13;;;;;;;;;;;16.10;92.60;;;;;;5016022;28;20267;-66
2022/05/27 01:08:39;;;;;;;;;;;16.20;92.90;;;;;;5012201;28;19967;-65
2022/05/27 01:11:09;;;;;;;;;;;16.40;93.00;;;;;;5017660;28;20297;-65
2022/05/27 01:13:42;;;;;;;;;;;16.50;92.10;;;;;;5019451;28;19920;-64
2022/05/27 01:16:13;;;;;;;;;;;16.70;91.20;;;;;;5015814;28;19910;-65
2022/05/27 01:21:39;;;;;;;;;;;16.90;91.20;;;;;;5018283;28;19967;-65
2022/05/27 01:24:15;;;;;;;;;;;17.10;91.20;;;;;;5017466;28;19913;-65
2022/05/27 01:26:42;;;;;;;;;;;17.30;91.80;;;;;;5014487;28;19925;-65
2022/05/27 01:29:14;;;;;;;;;;;17.40;89.00;;;;;;5014144;28;20377;-65
2022/05/27 01:31:44;;;;;;;;;;;17.40;90.30;;;;;;5016364;28;19910;-66
2022/05/27 01:34:31;;;;;;;;;;;17.40;89.90;;;;;;5015514;28;19913;-66
2022/05/27 01:37:01;;;;;;;;;;;17.40;87.30;;;;;;5007010;28;19917;-65
2022/05/27 01:39:30;;;;;;;;;;;17.40;90.10;;;;;;5016898;28;19913;-66
2022/05/27 01:42:15;;;;;;;;;;;17.50;90.00;;;;;;5016969;28;19924;-65
2022/05/27 01:45:03;;;;;;;;;;;17.60;89.80;;;;;;5018210;28;19960;-65
2022/05/27 01:47:39;;;;;;;;;;;17.70;89.90;;;;;;5016158;28;19931;-66
2022/05/27 01:50:09;;;;;;;;;;;17.70;87.20;;;;;;5017051;28;19921;-66
2022/05/27 01:52:45;;;;;;;;;;;17.90;88.50;;;;;;5018610;28;20424;-65
2022/05/27 01:55:18;;;;;;;;;;;18.00;86.60;;;;;;5017487;28;19916;-65
2022/05/27 01:57:57;;;;;;;;;;;18.10;87.60;;;;;;5025295;28;19913;-66
2022/05/27 02:00:26;;;;;;;;;;;18.10;86.60;;;;;;5025759;28;19905;-66
2022/05/27 02:02:52;;;;;;;;;;;18.30;86.00;;;;;;5015984;28;19917;-65
2022/05/27 02:05:22;;;;;;;;;;;18.30;83.20;;;;;;5014723;28;19905;-65
2022/05/27 02:07:52;;;;;;;;;;;18.30;81.10;;;;;;5029264;28;20393;-65
2022/05/27 02:10:28;;;;;;;;;;;18.30;84.30;;;;;;5021303;28;19905;-66
2022/05/27 02:13:00;;;;;;;;;;;18.30;84.80;;;;;;5018846;28;19940;-66
2022/05/27 02:15:30;;;;;;;;;;;18.50;85.60;;;;;;5017627;28;20004;-65
2022/05/27 02:18:02;;;;;;;;;;;18.50;84.80;;;;;;5019664;28;19909;-66
2022/05/27 02:20:33;;;;;;;;;;;18.60;84.00;;;;;;5019635;28;19913;-65
2022/05/27 02:23:20;;;;;;;;;;;18.70;84.80;;;;;;5021015;28;20008;-66
2022/05/27 02:25:47;;;;;;;;;;;18.70;83.20;;;;;;5012946;28;20384;-65
2022/05/27 02:28:17;;;;;;;;;;;18.80;85.20;;;;;;5017179;28;20285;-65
2022/05/27 02:30:49;;;;;;;;;;;18.90;84.80;;;;;;5026120;28;20340;-64
2022/05/27 02:36:05;;;;;;;;;;;19.10;85.00;;;;;;5018337;28;19987;-67
2022/05/27 02:38:32;;;;;;;;;;;19.10;81.60;;;;;;5016639;28;19943;-65
2022/05/27 02:41:08;;;;;;;;;;;19.20;82.80;;;;;;5019742;28;19909;-61
2022/05/27 02:43:42;;;;;;;;;;;19.30;83.40;;;;;;5027415;28;19920;-64
2022/05/27 02:46:08;;;;;;;;;;;19.30;83.70;;;;;;5026787;28;20285;-62
2022/05/27 02:48:41;;;;;;;;;;;19.40;82.70;;;;;;5026798;28;20367;-63
2022/05/27 02:51:46;;;;;;;;;;;19.50;82.30;;;;;;5025809;28;20300;-62
2022/05/27 02:54:30;;;;;;;;;;;19.60;81.90;;;;;;4999188;28;19917;-62
2022/05/27 02:57:15;;;;;;;;;;;19.70;81.80;;;;;;4997988;28;20290;-63
2022/05/27 02:59:42;;;;;;;;;;;19.60;78.30;;;;;;5014524;28;20427;-65
2022/05/27 03:02:10;;;;;;;;;;;19.60;78.50;;;;;;5016327;28;20004;-62
2022/05/27 03:04:39;;;;;;;;;;;19.50;80.00;;;;;;5024146;28;20053;-63
2022/05/27 03:07:14;;;;;;;;;;;19.60;77.00;;;;;;5017057;28;20023;-62
2022/05/27 03:09:50;;;;;;;;;;;19.60;79.20;;;;;;5016084;28;20004;-62
2022/05/27 03:12:32;;;;;;;;;;;19.60;80.00;;;;;;5011574;28;19913;-62
2022/05/27 03:14:59;;;;;;;;;;;19.60;75.50;;;;;;5021786;28;19913;-62
2022/05/27 03:17:28;;;;;;;;;;;19.60;75.50;;;;;;5019122;28;19913;-62
2022/05/27 03:19:55;;;;;;;;;;;19.60;78.30;;;;;;5023226;28;19919;-62
2022/05/27 03:22:24;;;;;;;;;;;19.80;76.10;;;;;;5023163;28;20389;-61
2022/05/27 03:25:03;;;;;;;;;;;19.80;78.10;;;;;;5023291;28;19913;-61
2022/05/27 03:27:33;;;;;;;;;;;19.90;77.00;;;;;;5017302;28;19975;-61
2022/05/27 03:30:19;;;;;;;;;;;20.00;77.40;;;;;;5027250;28;19913;-61
2022/05/27 03:32:49;;;;;;;;;;;20.10;76.70;;;;;;5016241;28;19983;-61
2022/05/27 03:35:28;;;;;;;;;;;20.10;77.20;;;;;;5008977;28;19916;-61
2022/05/27 03:37:54;;;;;;;;;;;20.10;75.90;;;;;;5012256;28;19909;-61
2022/05/27 03:40:53;;;;;;;;;;;20.20;73.50;;;;;;5018329;28;19905;-62
2022/05/27 03:43:20;;;;;;;;;;;20.20;73.70;;;;;;5003594;28;19909;-63
2022/05/27 03:45:51;;;;;;;;;;;20.30;73.80;;;;;;5010622;28;19924;-61
2022/05/27 03:48:18;;;;;;;;;;;20.20;73.30;;;;;;5015670;28;19905;-61
2022/05/27 03:50:47;;;;;;;;;;;20.20;72.30;;;;;;5014287;28;19913;-60
2022/05/27 03:53:13;;;;;;;;;;;20.20;72.90;;;;;;5025051;28;20345;-61
2022/05/27 03:55:44;;;;;;;;;;;20.30;74.60;;;;;;5016571;28;19919;-61
2022/05/27 03:58:14;;;;;;;;;;;20.30;75.60;;;;;;5017835;28;19936;-63
2022/05/27 04:00:42;;;;;;;;;;;20.30;74.50;;;;;;5020116;28;19920;-61
2022/05/27 04:03:11;;;;;;;;;;;20.40;75.30;;;;;;5019601;28;20007;-61
2022/05/27 04:05:39;;;;;;;;;;;20.40;73.60;;;;;;5019909;28;19956;-62
2022/05/27 04:08:06;;;;;;;;;;;20.40;74.40;;;;;;5022262;28;20004;-61
2022/05/27 04:10:32;;;;;;;;;;;20.40;72.90;;;;;;5026191;28;19943;-62
2022/05/27 04:12:59;;;;;;;;;;;20.40;71.40;;;;;;5029574;28;19913;-62
2022/05/27 04:15:25;;;;;;;;;;;20.40;72.30;;;;;;5014382;28;20052;-61
2022/05/27 04:17:52;;;;;;;;;;;20.30;73.80;;;;;;5021511;28;19947;-62
2022/05/27 04:20:19;;;;;;;;;;;20.40;73.90;;;;;;5021520;28;19917;-64
2022/05/27 04:22:46;;;;;;;;;;;20.40;73.00;;;;;;5027009;28;20372;-62
2022/05/27 04:25:13;;;;;;;;;;;20.40;72.40;;;;;;5027676;28;19909;-63
2022/05/27 04:27:40;;;;;;;;;;;20.40;72.90;;;;;;5021054;28;20028;-63
2022/05/27 04:30:07;;;;;;;;;;;20.30;73.10;;;;;;5025349;28;19917;-63
2022/05/27 04:32:34;;;;;;;;;;;20.20;73.20;;;;;;5025091;28;19909;-63
2022/05/27 04:35:01;;;;;;;;;;;20.20;73.50;;;;;;5016830;28;19964;-63
2022/05/27 04:37:27;;;;;;;;;;;20.10;74.10;;;;;;5029154;28;20005;-63
2022/05/27 04:39:54;;;;;;;;;;;20.10;75.90;;;;;;5017435;28;19909;-63
2022/05/27 04:42:20;;;;;;;;;;;20.10;75.50;;;;;;5015661;28;20504;-62
2022/05/27 04:44:47;;;;;;;;;;;20.20;74.30;;;;;;5024076;28;19909;-62
2022/05/27 04:47:14;;;;;;;;;;;20.20;74.90;;;;;;5030112;28;19917;-62
2022/05/27 04:49:55;;;;;;;;;;;20.10;75.20;;;;;;5027672;28;19920;-62
2022/05/27 04:52:23;;;;;;;;;;;20.10;74.20;;;;;;5019052;28;19924;-61
2022/05/27 04:54:50;;;;;;;;;;;20.10;73.80;;;;;;5024168;28;20370;-61
2022/05/27 04:57:19;;;;;;;;;;;20.00;75.80;;;;;;5021188;28;19916;-62
2022/05/27 04:59:46;;;;;;;;;;;20.00;76.20;;;;;;5016688;28;19916;-62
2022/05/27 05:02:16;;;;;;;;;;;19.90;76.20;;;;;;5025727;28;19909;-63
2022/05/27 05:04:42;;;;;;;;;;;19.90;76.70;;;;;;5026854;28;19909;-62
2022/05/27 05:07:09;;;;;;;;;;;19.90;76.70;;;;;;5023185;28;19917;-63
2022/05/27 05:09:37;;;;;;;;;;;19.90;77.10;;;;;;5019114;28;19917;-62
2022/05/27 05:12:04;;;;;;;;;;;19.90;77.20;;;;;;5026820;28;19909;-62
2022/05/27 05:14:31;;;;;;;;;;;19.80;77.40;;;;;;5026095;28;19913;-62
2022/05/27 05:16:57;;;;;;;;;;;19.70;77.70;;;;;;5023588;28;19916;-63
2022/05/27 05:19:24;;;;;;;;;;;19.70;77.70;;;;;;5021422;28;19909;-63
2022/05/27 05:21:50;;;;;;;;;;;19.70;78.20;;;;;;5022053;28;20493;-62
2022/05/27 05:24:17;;;;;;;;;;;19.70;77.90;;;;;;5023168;28;19991;-63
2022/05/27 05:26:44;;;;;;;;;;;19.70;78.30;;;;;;5020714;28;19916;-62
2022/05/27 05:29:10;;;;;;;;;;;19.60;78.80;;;;;;5021155;28;19917;-63
2022/05/27 05:31:37;;;;;;;;;;;19.50;79.20;;;;;;5022893;28;20370;-62
2022/05/27 05:34:03;;;;;;;;;;;19.50;79.30;;;;;;5028234;28;19945;-62
2022/05/27 05:36:31;;;;;;;;;;;19.40;80.00;;;;;;5025501;28;20305;-64
2022/05/27 05:38:58;;;;;;;;;;;19.40;80.10;;;;;;5023425;28;19909;-62
2022/05/27 05:41:31;;;;;;;;;;;19.30;80.60;;;;;;5019300;28;19913;-63
2022/05/27 05:43:58;;;;;;;;;;;19.20;81.00;;;;;;5018321;28;19936;-62
2022/05/27 05:46:25;;;;;;;;;;;19.20;81.40;;;;;;5018514;28;19921;-62
2022/05/27 05:48:52;;;;;;;;;;;19.00;81.80;;;;;;5028248;28;19955;-62
2022/05/27 05:51:18;;;;;;;;;;;19.10;82.30;;;;;;5030324;28;19905;-63
2022/05/27 05:53:45;;;;;;;;;;;18.90;82.30;;;;;;5015954;28;19913;-62
2022/05/27 05:56:12;;;;;;;;;;;18.90;82.90;;;;;;5022288;28;19909;-63
2022/05/27 05:58:38;;;;;;;;;;;18.80;83.00;;;;;;5025815;28;19959;-62
2022/05/27 06:01:05;;;;;;;;;;;18.70;83.70;;;;;;5016426;28;20036;-62
2022/05/27 06:03:31;;;;;;;;;;;18.60;84.20;;;;;;5027606;28;19909;-63
2022/05/27 06:05:58;;;;;;;;;;;18.60;84.60;;;;;;5025482;28;20278;-63
2022/05/27 06:08:24;;;;;;;;;;;18.50;84.70;;;;;;5025147;28;20655;-63
2022/05/27 06:10:51;;;;;;;;;;;18.50;85.30;;;;;;5027868;28;20467;-63
2022/05/27 06:13:18;;;;;;;;;;;18.40;85.10;;;;;;5024038;28;19909;-63
2022/05/27 06:15:45;;;;;;;;;;;18.30;85.50;;;;;;5028069;28;19913;-63
2022/05/27 06:18:13;;;;;;;;;;;18.20;85.60;;;;;;5024844;28;19909;-63
2022/05/27 06:20:40;;;;;;;;;;;18.10;85.90;;;;;;5024812;28;20473;-63
2022/05/27 06:23:08;;;;;;;;;;;18.00;86.40;;;;;;5028015;28;19915;-63
2022/05/27 06:25:34;;;;;;;;;;;17.90;87.00;;;;;;5026239;28;19941;-63
2022/05/27 06:36:16;;;;;;;;;;;17.60;87.50;;;;;;5014954;28;20005;-63
2022/05/27 06:38:42;;;;;;;;;;;17.50;87.80;;;;;;5018817;28;19916;-63
2022/05/27 06:41:09;;;;;;;;;;;17.40;87.70;;;;;;5024858;28;20020;-62
2022/05/27 06:43:35;;;;;;;;;;;17.30;88.20;;;;;;5010969;28;20008;-63
2022/05/27 06:46:03;;;;;;;;;;;17.20;88.40;;;;;;5026502;28;19913;-63
2022/05/27 06:48:29;;;;;;;;;;;17.00;88.70;;;;;;5020713;28;19913;-63
2022/05/27 06:50:56;;;;;;;;;;;16.90;89.30;;;;;;5019499;28;19909;-62
2022/05/27 06:53:23;;;;;;;;;;;16.80;89.70;;;;;;5023079;28;20396;-63
2022/05/27 06:55:50;;;;;;;;;;;16.70;89.80;;;;;;5020722;28;20300;-62
2022/05/27 06:58:17;;;;;;;;;;;16.50;90.10;;;;;;5022263;28;19948;-63
2022/05/27 07:00:44;;;;;;;;;;;16.40;90.30;;;;;;5026897;28;19999;-62
2022/05/27 07:03:10;;;;;;;;;;;16.30;90.40;;;;;;5017072;28;19925;-62
2022/05/27 07:05:37;;;;;;;;;;;16.10;90.60;;;;;;5027414;28;19921;-62
2022/05/27 07:08:06;;;;;;;;;;;16.00;91.00;;;;;;5023279;28;20309;-62
2022/05/27 07:10:32;;;;;;;;;;;16.00;91.10;;;;;;5019246;28;19909;-63
2022/05/27 07:13:00;;;;;;;;;;;15.80;91.10;;;;;;5017608;28;20289;-64
2022/05/27 07:15:27;;;;;;;;;;;15.70;91.20;;;;;;5016694;28;19909;-62
2022/05/27 07:17:54;;;;;;;;;;;15.60;91.40;;;;;;5017059;28;20354;-61
2022/05/27 07:20:20;;;;;;;;;;;15.50;91.50;;;;;;5019242;28;20385;-62
2022/05/27 07:22:47;;;;;;;;;;;15.40;91.70;;;;;;5015880;28;19909;-62
2022/05/27 07:25:13;;;;;;;;;;;15.40;91.90;;;;;;5016144;28;19909;-61
2022/05/27 07:27:41;;;;;;;;;;;15.30;92.20;;;;;;5013300;28;19921;-62
2022/05/27 07:30:08;;;;;;;;;;;15.20;92.20;;;;;;5023451;28;19959;-62
2022/05/27 07:32:36;;;;;;;;;;;15.20;92.40;;;;;;5016820;28;19909;-62
2022/05/27 07:35:05;;;;;;;;;;;15.10;92.30;;;;;;5023457;28;19909;-62
2022/05/27 07:37:32;;;;;;;;;;;15.00;92.30;;;;;;5022852;28;19909;-62
2022/05/27 07:39:58;;;;;;;;;;;14.90;92.20;;;;;;5022050;28;19979;-63
2022/05/27 07:42:25;;;;;;;;;;;14.80;92.60;;;;;;5011096;28;19909;-63
2022/05/27 07:44:52;;;;;;;;;;;14.70;92.70;;;;;;5020398;28;19936;-63
2022/05/27 07:47:19;;;;;;;;;;;14.60;92.70;;;;;;5015631;28;20370;-63
2022/05/27 07:49:46;;;;;;;;;;;14.50;92.80;;;;;;5010947;28;19909;-63
2022/05/27 07:52:12;;;;;;;;;;;14.40;93.00;;;;;;5019178;28;19909;-63
2022/05/27 07:54:39;;;;;;;;;;;14.30;92.90;;;;;;5018023;28;19987;-63
2022/05/27 07:57:23;;;;;;;;;;;14.20;93.10;;;;;;5012425;28;19925;-63
2022/05/27 07:59:51;;;;;;;;;;;14.10;93.50;;;;;;5021518;28;19914;-63
2022/05/27 08:02:17;;;;;;;;;;;14.00;93.80;;;;;;5013251;28;20015;-63
2022/05/27 08:04:44;;;;;;;;;;;14.00;93.90;;;;;;5019503;28;20000;-63
2022/05/27 08:07:11;;;;;;;;;;;13.90;94.00;;;;;;5021495;28;19991;-63
2022/05/27 08:09:37;;;;;;;;;;;13.90;94.30;;;;;;5012707;28;19925;-63
2022/05/27 08:12:05;;;;;;;;;;;13.80;94.40;;;;;;5024794;28;19915;-63
2022/05/27 08:14:31;;;;;;;;;;;13.80;95.30;;;;;;5016594;28;20018;-63
2022/05/27 08:16:58;;;;;;;;;;;13.80;95.30;;;;;;5021387;28;19909;-63
2022/05/27 08:19:25;;;;;;;;;;;13.80;95.50;;;;;;5010401;28;19936;-63
2022/05/27 08:21:52;;;;;;;;;;;13.80;95.50;;;;;;5021857;28;19905;-63
2022/05/27 08:24:18;;;;;;;;;;;13.80;95.20;;;;;;5015026;28;19913;-63
2022/05/27 08:26:46;;;;;;;;;;;13.70;95.60;;;;;;5014906;28;20019;-63
2022/05/27 08:29:13;;;;;;;;;;;13.80;96.20;;;;;;5022638;28;19908;-63
2022/05/27 08:31:40;;;;;;;;;;;13.90;96.60;;;;;;5008946;28;20294;-62
2022/05/27 08:39:38;;;;;;;;;;;14.00;96.20;;;;;;5023491;28;20321;-62
2022/05/27 08:42:10;;;;;;;;;;;14.00;96.00;;;;;;5009365;28;19905;-62
2022/05/27 08:44:39;;;;;;;;;;;14.00;96.10;;;;;;5010885;28;19995;-62
2022/05/27 08:47:06;;;;;;;;;;;14.00;95.50;;;;;;5023038;28;19928;-63
2022/05/27 08:49:40;;;;;;;;;;;14.00;95.20;;;;;;5021258;28;19909;-62
2022/05/27 08:52:25;;;;;;;;;;;13.90;94.70;;;;;;5027941;28;19947;-62
2022/05/27 08:54:56;;;;;;;;;;;13.70;94.60;;;;;;5017002;28;20588;-62
2022/05/27 09:00:14;;;;;;;;;;;13.40;94.60;;;;;;5029561;28;19919;-58
2022/05/27 09:03:09;;;;;;;;;;;13.40;95.60;;;;;;5011101;28;19924;-58
2022/05/27 09:05:39;;;;;;;;;;;13.40;95.30;;;;;;5023029;28;20005;-58
2022/05/27 09:08:11;;;;;;;;;;;13.30;95.30;;;;;;5024235;28;19925;-57
2022/05/27 09:10:47;;;;;;;;;;;13.20;95.30;;;;;;5018723;28;19913;-56
2022/05/27 09:13:13;;;;;;;;;;;13.10;95.80;;;;;;5025219;28;19909;-58
2022/05/27 09:15:52;;;;;;;;;;;13.10;96.10;;;;;;5016399;28;19940;-58
2022/05/27 09:18:37;;;;;;;;;;;13.20;97.00;;;;;;5029463;28;20453;-58
2022/05/27 09:21:19;;;;;;;;;;;13.30;97.30;;;;;;5015263;28;20398;-58
2022/05/27 09:23:55;;;;;;;;;;;13.50;97.70;;;;;;5018683;28;19913;-56
2022/05/27 09:26:24;;;;;;;;;;;13.70;97.70;;;;;;5009608;28;20198;-57
2022/05/27 09:29:09;;;;;;;;;;;13.70;97.10;;;;;;5022326;28;19917;-59
2022/05/27 09:31:57;;;;;;;;;;;13.70;96.50;;;;;;5025392;28;19967;-58
2022/05/27 09:34:26;;;;;;;;;;;13.60;96.00;;;;;;5010751;28;19912;-58
2022/05/27 09:36:54;;;;;;;;;;;13.50;96.00;;;;;;5023597;28;19909;-59
2022/05/27 09:39:22;;;;;;;;;;;13.40;95.90;;;;;;5022785;28;20411;-60
2022/05/27 09:41:55;;;;;;;;;;;13.30;95.60;;;;;;5022875;28;19913;-59
2022/05/27 09:44:34;;;;;;;;;;;13.20;95.60;;;;;;5015709;28;19909;-57
2022/05/27 09:47:02;;;;;;;;;;;13.10;95.70;;;;;;5017666;28;19971;-60
2022/05/27 09:49:28;;;;;;;;;;;12.90;95.80;;;;;;5022939;28;19999;-60
2022/05/27 09:51:55;;;;;;;;;;;12.80;95.30;;;;;;5018822;28;19913;-57
2022/05/27 09:54:27;;;;;;;;;;;12.70;96.40;;;;;;5019390;28;20764;-58
2022/05/27 09:57:03;;;;;;;;;;;13.00;97.90;;;;;;5026258;28;19960;-57
2022/05/27 09:59:37;;;;;;;;;;;13.10;98.00;;;;;;5025805;28;19920;-57
2022/05/27 10:02:23;;;;;;;;;;;13.10;97.20;;;;;;5015150;28;19918;-59
2022/05/27 10:05:07;;;;;;;;;;;13.10;97.60;;;;;;5021000;28;19909;-58
2022/05/27 10:07:36;;;;;;;;;;;13.10;97.00;;;;;;5020234;28;19918;-60
2022/05/27 10:10:23;;;;;;;;;;;13.10;97.10;;;;;;5021070;28;19921;-58
2022/05/27 10:12:50;;;;;;;;;;;13.00;96.60;;;;;;5025606;28;19978;-59
2022/05/27 10:15:31;;;;;;;;;;;13.00;97.20;;;;;;5024062;28;20369;-59
2022/05/27 10:18:16;;;;;;;;;;;13.10;97.60;;;;;;5014825;28;19924;-58
2022/05/27 10:20:47;;;;;;;;;;;13.20;97.90;;;;;;5020486;28;19948;-59
2022/05/27 10:23:21;;;;;;;;;;;13.20;97.60;;;;;;5012761;28;19909;-59
2022/05/27 10:25:48;;;;;;;;;;;13.30;97.60;;;;;;5021109;28;19943;-58
2022/05/27 10:28:25;;;;;;;;;;;13.20;97.20;;;;;;5022289;28;19960;-60
2022/05/27 10:30:54;;;;;;;;;;;13.20;96.80;;;;;;5022513;28;19992;-54
2022/05/27 10:33:22;;;;;;;;;;;13.00;96.40;;;;;;5025217;28;19921;-59
2022/05/27 10:35:49;;;;;;;;;;;12.90;96.10;;;;;;5014189;28;19909;-58
2022/05/27 10:38:34;;;;;;;;;;;12.70;96.40;;;;;;5016032;28;20430;-58
2022/05/27 10:41:12;;;;;;;;;;;12.70;97.10;;;;;;5010659;28;19913;-64
2022/05/27 10:43:58;;;;;;;;;;;12.90;98.30;;;;;;5024544;28;19905;-57
2022/05/27 10:46:29;;;;;;;;;;;12.90;98.00;;;;;;5017112;28;19917;-56
2022/05/27 10:49:01;;;;;;;;;;;12.90;97.40;;;;;;5026368;28;19916;-57
2022/05/27 10:51:48;;;;;;;;;;;12.90;97.30;;;;;;5025240;28;20088;-59
2022/05/27 10:54:24;;;;;;;;;;;12.80;97.00;;;;;;5025806;28;19959;-58
2022/05/27 11:02:04;;;;;;;;;;;12.80;97.30;;;;;;5017746;28;20392;-57
2022/05/27 11:02:37;;;;;;;;;;;12.70;97.50;;;;;;5024391;28;19916;-57
2022/05/27 11:05:16;;;;;;;;;;;12.70;97.20;;;;;;5013032;28;19905;-57
2022/05/27 11:07:48;;;;;;;;;;;12.70;97.30;;;;;;5020428;28;19928;-57
2022/05/27 11:10:18;;;;;;;;;;;12.70;97.60;;;;;;5020922;28;20439;-59
2022/05/27 11:15:44;;;;;;;;;;;12.60;97.50;;;;;;5020136;28;19920;-56
2022/05/27 11:18:11;;;;;;;;;;;12.60;97.30;;;;;;5018321;28;20358;-58
2022/05/27 11:20:55;;;;;;;;;;;12.50;97.30;;;;;;5019722;28;20435;-55
2022/05/27 11:23:34;;;;;;;;;;;12.40;97.30;;;;;;5010221;28;19921;-56
2022/05/27 11:26:11;;;;;;;;;;;12.30;97.20;;;;;;5018551;28;20422;-56
2022/05/27 11:28:37;;;;;;;;;;;12.30;97.40;;;;;;5016554;28;19963;-56
2022/05/27 11:31:11;;;;;;;;;;;12.30;97.50;;;;;;5018727;28;19909;-56
2022/05/27 11:33:53;;;;;;;;;;;12.20;97.50;;;;;;5019025;28;19967;-58
2022/05/27 11:36:28;;;;;;;;;;;12.20;97.60;;;;;;5016457;28;19948;-58
2022/05/27 11:39:02;;;;;;;;;;;12.20;97.70;;;;;;5022559;28;19913;-56
2022/05/27 11:41:28;;;;;;;;;;;12.10;97.60;;;;;;5024616;28;19917;-57
2022/05/27 11:44:04;;;;;;;;;;;12.10;97.90;;;;;;5020667;28;20337;-57
2022/05/27 11:46:49;;;;;;;;;;;12.10;98.00;;;;;;5023978;28;19925;-56
2022/05/27 11:49:35;;;;;;;;;;;12.10;97.90;;;;;;5023253;28;20305;-56
2022/05/27 11:52:02;;;;;;;;;;;12.10;98.40;;;;;;5021163;28;20027;-55
2022/05/27 11:54:34;;;;;;;;;;;12.20;98.70;;;;;;5024261;28;20384;-55
2022/05/27 11:57:15;;;;;;;;;;;12.20;98.50;;;;;;5019779;28;19913;-55
2022/05/27 11:59:55;;;;;;;;;;;12.20;98.00;;;;;;5021692;28;19920;-56
2022/05/27 12:02:38;;;;;;;;;;;12.00;97.70;;;;;;5016754;28;19914;-56
2022/05/27 12:05:09;;;;;;;;;;;12.10;98.00;;;;;;5012030;28;19921;-56
2022/05/27 12:07:41;;;;;;;;;;;12.00;97.90;;;;;;5019789;28;20305;-56
2022/05/27 12:10:13;;;;;;;;;;;11.90;97.70;;;;;;5008900;28;19961;-56
2022/05/27 12:12:45;;;;;;;;;;;11.90;98.00;;;;;;5011921;28;19920;-54
2022/05/27 12:15:19;;;;;;;;;;;11.90;97.80;;;;;;5007597;28;20647;-56
2022/05/27 12:17:50;;;;;;;;;;;11.90;97.80;;;;;;5007580;28;20007;-58
2022/05/27 12:20:29;;;;;;;;;;;11.80;97.60;;;;;;5023752;28;19921;-56
2022/05/27 12:22:56;;;;;;;;;;;11.70;97.60;;;;;;5025966;28;20424;-56
2022/05/27 12:25:25;;;;;;;;;;;11.60;97.50;;;;;;5018169;28;20653;-52
2022/05/27 12:27:53;;;;;;;;;;;11.50;97.80;;;;;;5018340;28;20014;-57
2022/05/27 12:30:20;;;;;;;;;;;11.60;98.00;;;;;;5016674;28;19916;-55
2022/05/27 12:32:48;;;;;;;;;;;11.50;97.90;;;;;;5025140;28;19913;-58
2022/05/27 12:35:23;;;;;;;;;;;11.70;98.80;;;;;;5024862;28;19909;-56
2022/05/27 12:37:51;;;;;;;;;;;11.70;98.60;;;;;;5028275;28;19913;-57
2022/05/27 12:40:23;;;;;;;;;;;11.70;98.30;;;;;;5025692;28;19909;-55
2022/05/27 12:42:54;;;;;;;;;;;11.60;98.10;;;;;;5019857;28;19949;-55
2022/05/27 12:45:29;;;;;;;;;;;11.60;98.10;;;;;;5012659;28;19913;-56
2022/05/27 12:47:56;;;;;;;;;;;11.60;98.10;;;;;;5015924;28;19941;-55
2022/05/27 12:50:29;;;;;;;;;;;11.50;98.10;;;;;;5023188;28;19948;-58
2022/05/27 12:53:14;;;;;;;;;;;11.50;98.30;;;;;;5017781;28;19996;-57
2022/05/27 13:00:55;;;;;;;;;;;11.60;98.60;;;;;;5024229;28;19917;-56
2022/05/27 13:01:27;;;;;;;;;;;11.60;99.00;;;;;;5008250;28;20297;-57
2022/05/27 13:03:54;;;;;;;;;;;11.70;99.00;;;;;;5019803;28;20266;-55
2022/05/27 13:06:27;;;;;;;;;;;11.80;99.40;;;;;;5018421;28;19975;-55
2022/05/27 13:08:53;;;;;;;;;;;11.90;99.70;;;;;;5019223;28;19924;-56
2022/05/27 13:11:23;;;;;;;;;;;11.90;99.50;;;;;;5025813;28;19916;-57
2022/05/27 13:13:52;;;;;;;;;;;11.90;99.40;;;;;;5028819;28;19917;-56
2022/05/27 13:16:26;;;;;;;;;;;11.90;99.70;;;;;;5032137;28;19931;-55
2022/05/27 13:18:58;;;;;;;;;;;12.00;99.60;;;;;;5017616;28;19996;-55
2022/05/27 13:21:28;;;;;;;;;;;12.00;99.70;;;;;;5022875;28;20378;-57
2022/05/27 13:24:02;;;;;;;;;;;12.00;99.60;;;;;;5028943;28;19909;-58
2022/05/27 13:26:34;;;;;;;;;;;11.80;99.20;;;;;;5024470;28;19929;-56
2022/05/27 13:29:01;;;;;;;;;;;11.60;98.70;;;;;;5020924;28;19914;-58
2022/05/27 13:31:34;;;;;;;;;;;11.60;98.40;;;;;;5019676;28;19909;-58
2022/05/27 13:34:07;;;;;;;;;;;11.40;98.10;;;;;;5029268;28;19956;-55
2022/05/27 13:36:40;;;;;;;;;;;11.20;98.10;;;;;;5027223;28;19909;-56
2022/05/27 13:39:10;;;;;;;;;;;11.10;98.00;;;;;;5024963;28;19940;-55
2022/05/27 13:41:39;;;;;;;;;;;11.00;98.00;;;;;;5021190;28;19909;-56
2022/05/27 13:44:06;;;;;;;;;;;10.90;98.10;;;;;;5028688;28;19916;-56
2022/05/27 13:46:36;;;;;;;;;;;10.70;98.00;;;;;;5029054;28;19924;-57
2022/05/27 13:49:11;;;;;;;;;;;10.70;98.00;;;;;;5028825;28;19908;-55
2022/05/27 13:51:42;;;;;;;;;;;10.60;98.10;;;;;;5028058;28;20396;-56
2022/05/27 13:54:16;;;;;;;;;;;10.50;98.10;;;;;;5028898;28;19916;-57
2022/05/27 13:56:50;;;;;;;;;;;10.50;98.30;;;;;;5027639;28;19937;-57
2022/05/27 13:59:27;;;;;;;;;;;10.50;98.30;;;;;;5020301;28;19912;-55
2022/05/27 14:01:57;;;;;;;;;;;10.40;98.30;;;;;;5019093;28;19909;-55
2022/05/27 14:04:26;;;;;;;;;;;10.40;98.40;;;;;;5027473;28;19913;-57
2022/05/27 14:06:53;;;;;;;;;;;10.40;98.70;;;;;;5027119;28;19956;-55
2022/05/27 14:09:22;;;;;;;;;;;10.50;99.00;;;;;;5029879;28;19917;-56
2022/05/27 14:11:50;;;;;;;;;;;10.50;98.90;;;;;;5026168;28;19912;-56
2022/05/27 14:14:22;;;;;;;;;;;10.50;98.60;;;;;;5022586;28;19917;-55
2022/05/27 14:16:48;;;;;;;;;;;10.40;98.50;;;;;;5016909;28;19988;-56
2022/05/27 14:19:33;;;;;;;;;;;10.40;98.40;;;;;;5018986;28;19911;-57
2022/05/27 14:24:44;;;;;;;;;;;10.10;98.10;;;;;;5027475;28;19932;-57
2022/05/27 14:27:12;;;;;;;;;;;10.10;98.10;;;;;;5029768;28;20411;-56
2022/05/27 14:29:39;;;;;;;;;;;10.10;98.30;;;;;;5025124;28;20399;-56
2022/05/27 14:32:07;;;;;;;;;;;10.10;98.60;;;;;;5024334;28;19909;-57
2022/05/27 14:34:34;;;;;;;;;;;10.10;98.80;;;;;;5026345;28;19909;-57
2022/05/27 14:37:24;;;;;;;;;;;10.10;98.80;;;;;;5027514;28;19913;-56
2022/05/27 14:39:51;;;;;;;;;;;10.20;98.90;;;;;;5028066;28;19923;-57
2022/05/27 14:42:18;;;;;;;;;;;10.20;98.90;;;;;;5028300;28;19915;-55
2022/05/27 14:44:46;;;;;;;;;;;10.20;98.90;;;;;;5022244;28;20362;-55
2022/05/27 14:47:27;;;;;;;;;;;10.20;99.20;;;;;;5017077;28;19917;-57
2022/05/27 14:49:56;;;;;;;;;;;10.40;99.40;;;;;;5021928;28;20006;-54
2022/05/27 14:52:43;;;;;;;;;;;10.40;99.40;;;;;;5013656;28;19913;-55
2022/05/27 14:55:20;;;;;;;;;;;10.40;99.40;;;;;;5026698;28;19909;-57
2022/05/27 14:57:52;;;;;;;;;;;10.40;99.40;;;;;;5029432;28;20404;-55
2022/05/27 15:00:25;;;;;;;;;;;10.40;99.30;;;;;;5026617;28;19940;-56
2022/05/27 15:02:57;;;;;;;;;;;10.40;99.30;;;;;;5023104;28;20743;-57
2022/05/27 15:05:24;;;;;;;;;;;10.40;99.20;;;;;;5019107;28;19913;-55
2022/05/27 15:07:54;;;;;;;;;;;10.40;99.10;;;;;;5028759;28;19921;-55
2022/05/27 15:10:35;;;;;;;;;;;10.40;99.00;;;;;;5027376;28;19928;-56
2022/05/27 15:13:19;;;;;;;;;;;10.30;98.90;;;;;;5027773;28;19909;-56